Flight Track Log - Related Links

Times and Time Zones

All times are in EDT time to prevent confusion due to time zone crossing. See the LXJ327 flight status page for this flight to view local times or setup timezone preferences in your user account.

Time Position Orientation Groundspeed Altitude Reporting Facility
EDT Latitude Longitude Course Direction KTS MPH feet Rate Location/Type
Mon 02:03:54 PM 37.6344 -97.4314 226° Southwest 156 180 2,100  Level Kansas City Center
Mon 02:04:48 PM 37.6011 -97.4750 226° Southwest 224 258 4,100 2,741 Climbing Kansas City Center
Mon 02:05:50 PM 37.5992 -97.5586 268° West 248 285 7,400 2,758 Climbing Kansas City Center
Mon 02:06:52 PM 37.6106 -97.6575 278° West 280 322 9,800 2,516 Climbing Kansas City Center
Mon 02:07:54 PM 37.6233 -97.7658 279° West 306 352 12,600 2,758 Climbing Kansas City Center
Mon 02:08:56 PM 37.6350 -97.8831 277° West 307 353 15,500 2,081 Climbing Kansas City Center
Mon 02:09:58 PM 37.6475 -97.9914 278° West 309 356 16,900 726 Climbing Kansas City Center
Mon 02:11:00 PM 37.6636 -98.1303 278° West 361 415 17,000 48 Climbing Kansas City Center
Mon 02:12:02 PM 37.6767 -98.2497 278° West 396 456 17,000  Level Kansas City Center
Mon 02:13:05 PM 37.6936 -98.3986 278° West 420 483 17,000 48 Level Kansas City Center
Mon 02:14:07 PM 37.7111 -98.5769 277° West 426 490 17,100 919 Climbing Kansas City Center
Mon 02:15:09 PM 37.7267 -98.7200 278° West 417 480 18,900 1,790 Climbing Kansas City Center
Mon 02:16:11 PM 37.7406 -98.8544 277° West 394 453 20,800 1,597 Climbing Kansas City Center
Mon 02:17:13 PM 37.7539 -98.9886 277° West 386 444 22,200 1,065 Climbing Kansas City Center
Mon 02:18:15 PM 37.7672 -99.1253 277° West 390 449 23,000 387 Climbing Kansas City Center
Mon 02:19:17 PM 37.7819 -99.2706 277° West 410 472 23,000 485 Level Kansas City Center
Mon 02:20:31 PM 37.8003 -99.4514 277° West 428 493 24,100 1,015 Climbing Kansas City Center
Mon 02:21:33 PM 37.8186 -99.6328 277° West 424 488 25,300 1,016 Climbing Kansas City Center
Mon 02:22:35 PM 37.8333 -99.7736 278° West 423 487 26,200 919 Climbing Kansas City Center
Mon 02:23:37 PM 37.8481 -99.9350 277° West 415 478 27,200 823 Climbing Kansas City Center
Mon 02:24:39 PM 37.8603 -100.0742 276° West 416 479 27,900 677 Climbing Kansas City Center
Mon 02:25:41 PM 37.8761 -100.2361 277° West 418 481 28,600 581 Climbing Kansas City Center
Mon 02:26:43 PM 37.8889 -100.3761 277° West 417 480 29,100 480 Climbing Kansas City Center
Mon 02:27:46 PM 37.9042 -100.5403 277° West 421 484 29,600 480 Climbing Kansas City Center
Mon 02:28:48 PM 37.9172 -100.6806 277° West 423 487 30,100 532 Climbing Kansas City Center
Mon 02:29:50 PM 37.9336 -100.8461 277° West 427 491 30,700 484 Climbing Kansas City Center
Mon 02:30:52 PM 37.9503 -100.9856 279° West 424 488 31,100 484 Climbing Kansas City Center
Mon 02:31:54 PM 37.9689 -101.1497 278° West 425 489 31,700 484 Climbing Kansas City Center
Mon 02:32:56 PM 37.9842 -101.2906 278° West 425 489 32,100 484 Climbing Kansas City Center
Mon 02:33:58 PM 38.0031 -101.4542 278° West 423 487 32,700 484 Climbing Kansas City Center
Mon 02:35:00 PM 38.0181 -101.5933 278° West 420 483 33,100 484 Climbing Kansas City Center
Mon 02:36:02 PM 38.0356 -101.7567 278° West 418 481 33,700 435 Climbing Kansas City Center
Mon 02:37:04 PM 38.0314 -101.8944 268° West 420 483 34,000 145 Climbing Kansas City Center
Mon 02:38:06 PM 37.9964 -102.0542 255° West 421 484 34,000  Level Kansas City Center
Mon 02:39:08 PM 37.9661 -102.1950 255° West 429 494 34,000  Level Kansas City Center
Mon 02:40:10 PM 37.9350 -102.3619 257° West 436 502 34,000  Level Kansas City Center
Mon 02:41:12 PM 37.9283 -102.5108 267° West 443 510 34,000  Level Kansas City Center
Mon 02:42:14 PM 37.9183 -102.6817 266° West 438 504 34,000  Level Kansas City Center
Mon 02:43:16 PM 37.9103 -102.8300 266° West 441 507 34,000  Level Kansas City Center
Mon 02:44:18 PM 37.9006 -103.0003 266° West 436 502 34,000  Level Kansas City Center
Mon 02:45:38 PM 37.8914 -103.1986 267° West 431 496 34,000  Level Denver Center
Mon 02:46:40 PM 37.8853 -103.3428 267° West 429 494 34,000  Level Denver Center
Mon 02:47:42 PM 37.8789 -103.5103 267° West 428 493 34,000  Level Denver Center
Mon 02:48:44 PM 37.8717 -103.6558 266° West 433 498 34,000  Level Denver Center
Mon 02:49:46 PM 37.8642 -103.8258 267° West 436 502 34,000  Level Denver Center
Mon 02:50:59 PM 37.8583 -103.9711 267° West 437 503 34,000  Level Denver Center
Mon 02:52:02 PM 37.8497 -104.1642 267° West 435 501 34,000  Level Denver Center
Mon 02:53:03 PM 37.8394 -104.3083 265° West 435 501 34,000  Level Denver Center
Mon 02:54:05 PM 37.8181 -104.4750 261° West 433 498 34,000  Level Denver Center
Mon 02:55:07 PM 37.8019 -104.6183 262° West 432 497 34,000  Level Denver Center
Mon 02:56:09 PM 37.7853 -104.7617 262° West 432 497 34,000  Level Denver Center
Mon 02:57:11 PM 37.7647 -104.9300 261° West 435 501 34,000  Level Denver Center
Mon 02:58:13 PM 37.7358 -105.0967 258° West 438 504 34,000  Level Denver Center
Mon 02:59:14 PM 37.7011 -105.2350 252° West 432 497 34,000  Level Denver Center
Mon 03:00:16 PM 37.6506 -105.3911 248° West 435 501 34,000  Level Denver Center
Mon 03:01:18 PM 37.5814 -105.5083 233° Southwest 436 502 34,000  Level Denver Center
Mon 03:02:20 PM 37.5081 -105.6314 233° Southwest 438 504 34,000  Level Denver Center
Mon 03:03:22 PM 37.4219 -105.7639 231° Southwest 437 503 34,000  Level Denver Center
Mon 03:04:24 PM 37.3547 -105.8853 235° Southwest 441 507 34,000  Level Denver Center
Mon 03:05:26 PM 37.2578 -106.0022 224° Southwest 434 499 34,000  Level Denver Center
Mon 03:06:28 PM 37.1617 -106.0853 215° Southwest 440 506 34,000  Level Denver Center
Mon 03:07:42 PM 37.0933 -106.2333 240° Southwest 438 504 34,000  Level Denver Center
Mon 03:08:44 PM 37.0528 -106.3986 253° West 443 510 34,000  Level Denver Center
Mon 03:09:46 PM 37.0125 -106.5633 253° West 444 511 34,000  Level Denver Center
Mon 03:10:48 PM 36.9783 -106.7042 253° West 443 510 34,000  Level Denver Center
Mon 03:11:50 PM 36.9367 -106.8692 253° West 444 511 34,000  Level Denver Center
Mon 03:12:52 PM 36.9031 -107.0094 253° West 442 509 34,000  Level Denver Center
Mon 03:13:54 PM 36.8622 -107.1717 253° West 440 506 34,000  Level Denver Center
Mon 03:14:56 PM 36.8267 -107.3114 252° West 440 506 34,000  Level Denver Center
Mon 03:15:58 PM 36.7861 -107.4742 253° West 441 507 34,000  Level Denver Center
Mon 03:17:00 PM 36.7517 -107.6128 253° West 438 504 34,000  Level Denver Center
Mon 03:18:02 PM 36.6964 -107.7386 241° Southwest 435 501 34,000  Level Denver Center
Mon 03:19:04 PM 36.5864 -107.8428 217° Southwest 445 512 34,000  Level Denver Center
Mon 03:20:06 PM 36.4933 -107.9328 218° Southwest 441 507 34,000  Level Denver Center
Mon 03:21:08 PM 36.3825 -108.0358 217° Southwest 443 510 34,000  Level Denver Center
Mon 03:22:22 PM 36.2889 -108.1253 218° Southwest 443 510 34,000  Level Denver Center
Mon 03:23:24 PM 36.1633 -108.2444 217° Southwest 443 510 34,000  Level Denver Center
Mon 03:24:26 PM 36.0686 -108.3347 218° Southwest 445 512 34,000  Level Denver Center
Mon 03:25:29 PM 35.9606 -108.4436 219° Southwest 445 512 34,000  Level Albuquerque Center
Mon 03:26:31 PM 35.8692 -108.5372 220° Southwest 443 510 34,000  Level Albuquerque Center
Mon 03:27:33 PM 35.7694 -108.6567 224° Southwest 443 510 34,000  Level Albuquerque Center
Mon 03:28:34 PM 35.7036 -108.7792 237° Southwest 448 516 34,000  Level Albuquerque Center
Mon 03:29:37 PM 35.6669 -108.9181 252° West 444 511 34,000  Level Albuquerque Center
Mon 03:30:38 PM 35.6431 -109.0875 260° West 447 514 34,000  Level Albuquerque Center
Mon 03:31:40 PM 35.6217 -109.2322 260° West 447 514 34,000  Level Albuquerque Center
Mon 03:32:42 PM 35.5994 -109.4025 261° West 449 517 34,000  Level Albuquerque Center
Mon 03:33:43 PM 35.5781 -109.5464 260° West 447 514 34,000  Level Albuquerque Center
Mon 03:34:45 PM 35.5525 -109.7144 259° West 449 517 34,000  Level Albuquerque Center
Mon 03:35:47 PM 35.5319 -109.8586 260° West 447 514 34,000  Level Albuquerque Center
Mon 03:36:49 PM 35.5114 -110.0019 260° West 445 512 34,000  Level Albuquerque Center
Mon 03:37:50 PM 35.4767 -110.1658 255° West 446 513 34,000  Level Albuquerque Center
Mon 03:38:52 PM 35.4414 -110.3039 253° West 444 511 34,000  Level Albuquerque Center
Mon 03:39:54 PM 35.4014 -110.4661 253° West 445 512 34,000  Level Albuquerque Center
Mon 03:40:55 PM 35.3653 -110.6042 252° West 445 512 34,000  Level Albuquerque Center
Mon 03:41:57 PM 35.3236 -110.7664 253° West 446 513 34,000  Level Albuquerque Center
Mon 03:42:59 PM 35.2881 -110.9044 253° West 445 512 34,000  Level Albuquerque Center
Mon 03:44:01 PM 35.2547 -111.0444 254° West 447 514 34,000  Level Albuquerque Center
Mon 03:45:02 PM 35.2183 -111.1961 254° West 454 522 34,000  Level Albuquerque Center
Mon 03:46:04 PM 35.1814 -111.3378 252° West 446 513 34,000  Level Albuquerque Center
Mon 03:47:06 PM 35.1439 -111.4811 252° West 444 511 34,000  Level Albuquerque Center
Mon 03:48:08 PM 35.0997 -111.6531 253° West 444 511 34,000  Level Albuquerque Center
Mon 03:49:09 PM 35.0636 -111.7869 252° West 444 511 34,000  Level Albuquerque Center
Mon 03:50:11 PM 35.0264 -111.9303 252° West 444 511 34,000  Level Albuquerque Center
Mon 03:51:13 PM 34.9892 -112.0722 252° West 443 510 34,000  Level Albuquerque Center
Mon 03:52:15 PM 34.9431 -112.2425 252° West 442 509 34,000  Level Albuquerque Center
Mon 03:53:16 PM 34.9056 -112.3853 252° West 442 509 34,000  Level Albuquerque Center
Mon 03:54:18 PM 34.8664 -112.5278 252° West 444 511 34,000  Level Albuquerque Center
Mon 03:55:20 PM 34.8283 -112.6706 252° West 443 510 34,000  Level Albuquerque Center
Mon 03:56:22 PM 34.7892 -112.8128 251° West 444 511 34,000  Level Albuquerque Center
Mon 03:57:23 PM 34.7508 -112.9536 252° West 441 507 34,000  Level Albuquerque Center
Mon 03:58:25 PM 34.7122 -113.0958 252° West 442 509 34,000  Level Albuquerque Center
Mon 03:59:27 PM 34.6647 -113.2661 251° West 443 510 34,000  Level Albuquerque Center
Mon 04:00:29 PM 34.6264 -113.4081 252° West 445 512 34,000 -634 Level Albuquerque Center
Mon 04:01:30 PM 34.5878 -113.5489 252° West 444 511 32,700 -1,512 Descending Albuquerque Center
Mon 04:02:32 PM 34.5464 -113.6919 251° West 443 510 30,900 -1,306 Descending Albuquerque Center
Mon 04:03:34 PM 34.5106 -113.8361 253° West 444 511 30,000 -435 Descending Albuquerque Center
Mon 04:04:36 PM 34.4703 -113.9761 251° West 442 509 30,000  Level Albuquerque Center
Mon 04:05:37 PM 34.4267 -114.1181 250° West 446 513 30,000  Level Albuquerque Center
Mon 04:06:39 PM 34.3814 -114.2619 249° West 453 521 30,000 -387 Level Albuquerque Center
Mon 04:07:41 PM 34.3292 -114.4347 250° West 455 524 29,200 -1,171 Descending Albuquerque Center
Mon 04:08:42 PM 34.2850 -114.5750 249° West 451 519 27,600 -1,918 Descending Albuquerque Center
Mon 04:09:43 PM 34.2456 -114.7075 250° West 441 507 25,300 -2,488 Descending Los Angeles Center
Mon 04:10:45 PM 34.2053 -114.8331 249° West 408 470 22,500 -2,784 Descending Los Angeles Center
Mon 04:11:48 PM 34.1700 -114.9589 251° West 399 459 19,500 -2,832 Descending Los Angeles Center
Mon 04:12:50 PM 34.1361 -115.0836 252° West 392 451 16,600 -3,387 Descending Los Angeles Center
Mon 04:13:52 PM 34.0981 -115.2306 253° West 386 444 12,500 -2,758 Descending Los Angeles Center
Mon 04:14:54 PM 34.0658 -115.3467 252° West 372 428 10,900 -871 Descending Los Angeles Center
Mon 04:15:56 PM 34.0344 -115.4614 252° West 365 420 10,700 -97 Descending Los Angeles Center
Mon 04:16:58 PM 34.0047 -115.5733 252° West 356 410 10,700  Level Los Angeles Center
Mon 04:18:00 PM 33.9742 -115.6828 251° West 351 404 10,700 97 Level Los Angeles Center
Mon 04:19:02 PM 33.9372 -115.8139 251° West 348 400 10,900 97 Climbing Los Angeles Center
Mon 04:20:04 PM 33.9214 -115.9208 260° West 334 384 10,900 -484 Level Los Angeles Center
Mon 04:21:06 PM 33.9103 -116.0181 262° West 306 352 9,900 -823 Descending Los Angeles Center
Mon 04:22:08 PM 33.9036 -116.0975 264° West 273 314 9,200 -1,161 Descending Los Angeles Center
Mon 04:23:10 PM 33.8972 -116.1636 263° West 226 260 7,500 -1,104 Descending Los Angeles Center
Mon 04:24:13 PM 33.9058 -116.2319 279° West 213 245 6,900 -480 Descending Los Angeles Center
Mon 04:25:15 PM 33.9186 -116.3125 281° West 207 238 6,500 -435 Descending Los Angeles Center
Mon 04:26:17 PM 33.9197 -116.3719 271° West 204 235 6,000 -1,277 Descending Los Angeles Center
Mon 04:28:37 PM 33.8833 -116.5167 253° West 181 208 2,200 -1,530 Descending Southern California TRACON
Mon 04:29:37 PM 33.8500 -116.5333 203° Southwest 164 189 900 -1,300 Descending Southern California TRACON
Mon 04:31:00 PM 33.8297 -116.5067 168° South  Level Estimated
Mon 04:38:00 PM 33.8297 -116.5067 168° South  Level Estimated
Mon 04:39:00 PM 33.8297 -116.5067 168° South  Level Estimated

Login

Don't have an account? Register now (free) for customized features, flight alerts, and more!